createdAt,value
2022-11-18T00:01:25.052Z,14.80
2022-11-18T00:03:54.433Z,12.33
2022-11-18T00:06:24.178Z,14.97
2022-11-18T00:08:52.906Z,15.73
2022-11-18T00:11:40.677Z,15.13
2022-11-18T00:14:23.139Z,15.93
2022-11-18T00:16:53.580Z,18.00
2022-11-18T00:19:24.265Z,16.63
2022-11-18T00:21:52.683Z,14.80
2022-11-18T00:24:21.670Z,17.87
2022-11-18T00:26:49.832Z,15.33
2022-11-18T00:29:18.593Z,17.17
2022-11-18T00:31:47.307Z,17.03
2022-11-18T00:34:17.356Z,16.57
2022-11-18T00:36:47.891Z,18.17
2022-11-18T00:39:17.656Z,18.23
2022-11-18T00:42:03.713Z,18.40
2022-11-18T00:44:32.210Z,15.40
2022-11-18T00:47:00.250Z,19.70
2022-11-18T00:49:28.345Z,15.50
2022-11-18T00:51:57.892Z,17.30
2022-11-18T00:54:25.952Z,18.50
2022-11-18T00:56:54.051Z,17.00
2022-11-18T00:59:22.086Z,23.17
2022-11-18T01:01:50.194Z,19.60
2022-11-18T01:04:18.609Z,20.07
2022-11-18T01:06:46.635Z,21.00
2022-11-18T01:09:16.439Z,19.07
2022-11-18T01:12:10.572Z,18.40
2022-11-18T01:14:38.716Z,20.50
2022-11-18T01:17:06.718Z,21.73
2022-11-18T01:19:34.699Z,21.53
2022-11-18T01:22:03.396Z,21.20
2022-11-18T01:24:34.283Z,22.20
2022-11-18T01:27:02.799Z,19.33
2022-11-18T01:29:31.253Z,19.10
2022-11-18T01:32:23.279Z,23.40
2022-11-18T01:34:47.230Z,22.13
2022-11-18T01:37:15.375Z,21.17
2022-11-18T01:39:44.747Z,21.37
2022-11-18T01:42:16.639Z,24.23
2022-11-18T01:45:09.653Z,21.33
2022-11-18T01:47:42.073Z,19.83
2022-11-18T01:50:11.545Z,21.13
2022-11-18T01:52:40.157Z,23.40
2022-11-18T01:55:14.434Z,24.47
2022-11-18T01:57:43.286Z,25.00
2022-11-18T02:00:12.789Z,22.83
2022-11-18T02:02:40.774Z,24.37
2022-11-18T02:05:11.849Z,22.33
2022-11-18T02:07:43.999Z,22.80
2022-11-18T02:10:20.768Z,24.00
2022-11-18T02:12:49.274Z,24.13
2022-11-18T02:15:18.512Z,21.87
2022-11-18T02:17:53.806Z,21.23
2022-11-18T02:20:36.578Z,22.97
2022-11-18T02:23:54.719Z,21.70
2022-11-18T02:27:01.912Z,24.60
2022-11-18T02:29:37.405Z,23.40
2022-11-18T02:32:12.342Z,23.40
2022-11-18T02:34:46.006Z,21.27
2022-11-18T02:37:19.032Z,23.60
2022-11-18T02:39:53.215Z,22.73
2022-11-18T02:42:23.923Z,23.40
2022-11-18T02:44:57.658Z,25.13
2022-11-18T02:47:28.416Z,24.40
2022-11-18T02:49:59.080Z,26.97
2022-11-18T02:52:28.878Z,25.10
2022-11-18T02:54:58.859Z,25.73
2022-11-18T02:57:30.166Z,27.03
2022-11-18T02:59:59.495Z,27.97
2022-11-18T03:02:27.551Z,31.53
2022-11-18T03:04:59.312Z,25.77
2022-11-18T03:07:31.151Z,28.20
2022-11-18T03:10:01.038Z,28.73
2022-11-18T03:12:38.401Z,31.63
2022-11-18T03:15:17.365Z,27.27
2022-11-18T03:17:55.977Z,27.13
2022-11-18T03:20:27.272Z,29.20
2022-11-18T03:23:01.074Z,29.60
2022-11-18T03:25:35.849Z,28.67
2022-11-18T03:28:10.502Z,28.10
2022-11-18T03:30:57.690Z,31.63
2022-11-18T03:33:32.512Z,29.47
2022-11-18T03:36:05.158Z,30.63
2022-11-18T03:38:37.740Z,28.77
2022-11-18T03:41:10.459Z,33.43
2022-11-18T03:43:42.384Z,32.50
2022-11-18T03:46:16.765Z,31.57
2022-11-18T03:48:49.517Z,34.47
2022-11-18T03:51:22.183Z,34.93
2022-11-18T03:53:56.236Z,33.23
2022-11-18T03:56:27.594Z,33.73
2022-11-18T03:58:59.964Z,30.93
2022-11-18T04:01:35.416Z,33.20
2022-11-18T04:04:03.777Z,34.57
2022-11-18T04:06:37.927Z,33.17
2022-11-18T04:09:10.715Z,37.13
2022-11-18T04:12:02.547Z,34.90
2022-11-18T04:14:31.125Z,36.73
2022-11-18T04:17:00.549Z,37.00
2022-11-18T04:19:29.462Z,38.23
2022-11-18T04:21:57.553Z,39.23
2022-11-18T04:24:25.690Z,37.13
2022-11-18T04:26:53.754Z,36.40
2022-11-18T04:29:21.761Z,34.67
2022-11-18T04:31:49.836Z,36.50
2022-11-18T04:34:19.172Z,33.90
2022-11-18T04:36:47.167Z,35.13
2022-11-18T04:39:15.741Z,34.57
2022-11-18T04:41:59.149Z,38.10
2022-11-18T04:44:29.223Z,35.83
2022-11-18T04:46:58.731Z,36.07
2022-11-18T04:49:28.963Z,36.03
2022-11-18T04:51:57.728Z,38.63
2022-11-18T04:54:27.534Z,32.27
2022-11-18T04:56:56.433Z,31.73
2022-11-18T04:59:26.676Z,32.83
2022-11-18T05:01:55.061Z,34.10
2022-11-18T05:04:25.546Z,39.70
2022-11-18T05:06:55.211Z,37.70
2022-11-18T05:09:28.632Z,33.47
2022-11-18T05:12:17.234Z,30.17
2022-11-18T05:14:49.664Z,36.10
2022-11-18T05:17:19.333Z,33.93
2022-11-18T05:19:47.401Z,33.13
2022-11-18T05:22:17.729Z,35.60
2022-11-18T05:24:45.783Z,34.20
2022-11-18T05:27:13.976Z,30.13
2022-11-18T05:29:41.957Z,36.27
2022-11-18T05:32:10.452Z,31.47
2022-11-18T05:34:38.571Z,34.87
2022-11-18T05:37:06.543Z,29.73
2022-11-18T05:39:36.115Z,37.53
2022-11-18T05:42:21.812Z,35.40
2022-11-18T05:44:56.171Z,32.37
2022-11-18T05:47:26.210Z,36.17
2022-11-18T05:49:54.262Z,37.43
2022-11-18T05:52:22.228Z,35.17
2022-11-18T05:54:52.134Z,39.70
2022-11-18T05:57:20.126Z,38.77
2022-11-18T05:59:48.112Z,39.73
2022-11-18T06:02:19.454Z,38.93
2022-11-18T06:04:50.461Z,41.97
2022-11-18T06:07:21.324Z,38.73
2022-11-18T06:09:53.235Z,37.03
2022-11-18T06:12:24.844Z,37.87
2022-11-18T06:14:59.084Z,39.17
2022-11-18T06:17:31.454Z,38.97
2022-11-18T06:20:00.570Z,39.30
2022-11-18T06:22:29.204Z,40.83
2022-11-18T06:24:58.650Z,40.93
2022-11-18T06:27:26.799Z,38.10
2022-11-18T06:29:54.833Z,39.23
2022-11-18T06:32:22.934Z,37.17
2022-11-18T06:34:50.906Z,38.07
2022-11-18T06:37:21.585Z,37.07
2022-11-18T06:39:49.583Z,38.13
2022-11-18T06:42:32.844Z,35.97
2022-11-18T06:45:02.018Z,39.97
2022-11-18T06:47:30.384Z,36.43
2022-11-18T06:49:58.410Z,38.63
2022-11-18T06:52:26.498Z,37.20
2022-11-18T06:54:54.551Z,37.43
2022-11-18T06:57:23.905Z,35.20
2022-11-18T06:59:51.992Z,37.27
2022-11-18T07:02:20.035Z,33.97
2022-11-18T07:04:48.044Z,34.00
2022-11-18T07:07:17.314Z,35.43
2022-11-18T07:09:45.706Z,39.03
2022-11-18T07:12:13.728Z,35.03
2022-11-18T07:14:43.125Z,32.10
2022-11-18T07:17:11.134Z,34.93
2022-11-18T07:19:40.631Z,29.93
2022-11-18T07:22:08.847Z,30.37
2022-11-18T07:24:37.940Z,33.90
2022-11-18T07:27:08.161Z,31.50
2022-11-18T07:29:36.206Z,24.37
2022-11-18T07:32:06.006Z,34.77
2022-11-18T07:34:34.011Z,36.80
2022-11-18T07:37:02.193Z,36.30
2022-11-18T07:47:26.204Z,32.10
2022-11-18T07:49:56.302Z,43.50
2022-11-18T07:52:26.408Z,38.57
2022-11-18T07:57:56.036Z,31.23
2022-11-18T08:00:24.148Z,35.10
2022-11-18T08:02:53.607Z,38.73
2022-11-18T08:05:23.539Z,36.50
2022-11-18T08:07:51.667Z,35.53
2022-11-18T08:10:19.830Z,33.23
2022-11-18T08:12:47.902Z,35.63
2022-11-18T08:15:16.000Z,35.40
2022-11-18T08:17:44.010Z,33.50
2022-11-18T08:20:13.997Z,33.43
2022-11-18T08:22:44.005Z,34.43
2022-11-18T08:25:12.239Z,34.73
2022-11-18T08:27:40.232Z,36.07
2022-11-18T08:30:09.379Z,33.40
2022-11-18T08:32:37.392Z,36.60
2022-11-18T08:35:10.781Z,33.13
2022-11-18T08:37:40.576Z,30.13
2022-11-18T08:40:09.562Z,36.60
2022-11-18T08:42:38.562Z,33.20
2022-11-18T08:45:08.382Z,29.50
2022-11-18T08:47:36.806Z,29.13
2022-11-18T08:50:05.134Z,32.63
2022-11-18T08:52:33.223Z,31.70
2022-11-18T08:55:03.348Z,31.00
2022-11-18T08:57:31.661Z,32.47
2022-11-18T08:59:59.732Z,30.97
2022-11-18T09:02:27.809Z,28.93
2022-11-18T09:04:55.793Z,28.33
2022-11-18T09:07:23.997Z,32.87
2022-11-18T09:09:52.157Z,31.20
2022-11-18T09:12:21.564Z,30.30
2022-11-18T09:17:37.809Z,34.43
2022-11-18T09:20:06.676Z,30.40
2022-11-18T09:22:37.327Z,33.87
2022-11-18T09:25:05.807Z,34.17
2022-11-18T09:27:35.238Z,29.73
2022-11-18T09:30:03.377Z,31.17
2022-11-18T09:32:31.446Z,29.13
2022-11-18T09:34:59.450Z,28.07
2022-11-18T09:37:27.511Z,26.67
2022-11-18T09:39:55.528Z,27.87
2022-11-18T09:42:52.501Z,28.17
2022-11-18T09:45:25.332Z,31.53
2022-11-18T09:47:58.878Z,28.50
2022-11-18T09:50:49.448Z,31.57
2022-11-18T09:53:21.332Z,28.63
2022-11-18T09:55:50.638Z,29.33
2022-11-18T09:58:23.865Z,29.73
2022-11-18T10:00:51.895Z,26.40
2022-11-18T10:03:28.045Z,28.10
2022-11-18T10:06:02.482Z,28.60
2022-11-18T10:08:37.680Z,29.30
2022-11-18T10:11:12.088Z,26.93
2022-11-18T10:13:55.096Z,29.83
2022-11-18T10:16:32.479Z,29.20
2022-11-18T10:19:10.617Z,29.37
2022-11-18T10:21:47.914Z,30.03
2022-11-18T10:24:20.735Z,30.00
2022-11-18T10:26:49.144Z,32.13
2022-11-18T10:29:18.520Z,29.73
2022-11-18T10:32:04.745Z,27.73
2022-11-18T10:34:34.358Z,28.10
2022-11-18T10:37:04.107Z,25.70
2022-11-18T10:39:32.532Z,27.47
2022-11-18T10:42:06.541Z,27.80
2022-11-18T10:44:39.367Z,27.87
2022-11-18T10:47:23.193Z,29.20
2022-11-18T10:49:51.965Z,29.20
2022-11-18T10:52:20.759Z,28.87
2022-11-18T10:55:19.429Z,31.90
2022-11-18T10:57:48.159Z,28.20
2022-11-18T11:00:41.281Z,26.70
2022-11-18T11:03:37.039Z,25.40
2022-11-18T11:06:30.006Z,26.30
2022-11-18T11:09:00.838Z,27.47
2022-11-18T11:11:32.007Z,29.87
2022-11-18T11:14:08.559Z,26.07
2022-11-18T11:16:46.873Z,26.77
2022-11-18T11:19:18.537Z,27.33
2022-11-18T11:21:46.811Z,26.37
2022-11-18T11:24:15.133Z,25.07
2022-11-18T11:30:06.034Z,27.07
2022-11-18T11:32:54.134Z,23.90
2022-11-18T11:35:27.078Z,26.63
2022-11-18T11:37:59.236Z,25.43
2022-11-18T11:40:34.823Z,25.47
2022-11-18T11:43:23.902Z,21.27
2022-11-18T11:46:10.423Z,24.73
2022-11-18T11:48:54.394Z,27.07
2022-11-18T11:51:32.439Z,25.33
2022-11-18T11:54:32.102Z,19.37
2022-11-18T11:57:05.786Z,21.83
2022-11-18T11:59:40.534Z,26.40
2022-11-18T12:02:50.577Z,25.73
2022-11-18T12:05:26.917Z,25.60
2022-11-18T12:07:58.666Z,25.27
2022-11-18T12:10:37.136Z,22.67
2022-11-18T12:13:15.463Z,22.90
2022-11-18T12:15:59.483Z,24.00
2022-11-18T12:18:34.376Z,25.50
2022-11-18T12:21:04.124Z,22.50
2022-11-18T12:23:34.262Z,21.87
2022-11-18T12:26:05.227Z,24.03
2022-11-18T12:28:36.711Z,23.43
2022-11-18T12:31:33.471Z,22.60
2022-11-18T12:34:07.873Z,23.23
2022-11-18T12:36:39.380Z,21.33
2022-11-18T12:39:49.430Z,21.23
2022-11-18T12:42:55.420Z,21.27
2022-11-18T12:45:50.107Z,22.93
2022-11-18T12:48:39.629Z,25.27
2022-11-18T12:51:41.520Z,21.83
2022-11-18T12:54:25.529Z,24.13
2022-11-18T12:56:54.148Z,25.67
2022-11-18T12:59:33.042Z,22.70
2022-11-18T13:02:06.956Z,25.37
2022-11-18T13:04:37.808Z,21.00
2022-11-18T13:07:34.255Z,20.17
2022-11-18T13:10:12.818Z,23.60
2022-11-18T13:12:45.261Z,25.40
2022-11-18T13:15:31.487Z,23.70
2022-11-18T13:18:09.292Z,24.67
2022-11-18T13:20:39.612Z,25.23
2022-11-18T13:23:46.196Z,26.50
2022-11-18T13:26:20.552Z,21.73
2022-11-18T13:29:15.153Z,26.80
2022-11-18T13:31:50.629Z,25.17
2022-11-18T13:34:21.342Z,29.13
2022-11-18T13:36:51.516Z,28.77
2022-11-18T13:39:24.226Z,25.07
2022-11-18T13:42:03.159Z,26.40
2022-11-18T13:44:33.243Z,29.37
2022-11-18T13:47:07.862Z,23.87
2022-11-18T13:49:50.345Z,27.93
2022-11-18T13:52:24.070Z,24.53
2022-11-18T13:54:55.613Z,24.80
2022-11-18T13:57:26.608Z,24.13
2022-11-18T13:59:55.702Z,22.47
2022-11-18T14:02:24.337Z,26.47
2022-11-18T14:04:55.663Z,25.10
2022-11-18T14:07:30.309Z,23.40
2022-11-18T14:10:02.086Z,22.23
2022-11-18T14:12:32.560Z,22.40
2022-11-18T14:15:22.040Z,16.90
2022-11-18T14:17:56.335Z,24.50
2022-11-18T14:20:25.328Z,27.03
2022-11-18T14:22:56.052Z,24.17
2022-11-18T14:25:29.144Z,21.90
2022-11-18T14:27:58.821Z,26.70
2022-11-18T14:30:35.607Z,21.87
2022-11-18T14:33:15.135Z,18.23
2022-11-18T14:35:45.586Z,14.87
2022-11-18T14:38:36.725Z,18.83
2022-11-18T14:41:08.420Z,17.27
2022-11-18T14:43:36.587Z,21.07
2022-11-18T14:46:07.014Z,17.57
2022-11-18T14:48:35.213Z,17.47
2022-11-18T14:51:03.280Z,24.47
2022-11-18T14:53:31.312Z,14.43
2022-11-18T14:56:00.892Z,14.10
2022-11-18T14:58:30.320Z,19.13
2022-11-18T15:00:58.391Z,15.33
2022-11-18T15:03:26.570Z,13.97
2022-11-18T15:05:54.678Z,12.40
2022-11-18T15:08:22.691Z,12.17
2022-11-18T15:10:50.774Z,10.93
2022-11-18T15:13:18.826Z,8.93
2022-11-18T15:15:48.267Z,8.47
2022-11-18T15:18:16.261Z,8.47
2022-11-18T15:20:44.324Z,9.20
2022-11-18T15:23:12.315Z,7.13
2022-11-18T15:25:40.493Z,9.53
2022-11-18T15:28:10.964Z,11.13
2022-11-18T15:30:39.187Z,8.70
2022-11-18T15:33:08.628Z,9.83
2022-11-18T15:35:36.677Z,9.50
2022-11-18T15:38:04.793Z,9.33
2022-11-18T15:40:33.082Z,15.07
2022-11-18T15:43:01.080Z,19.10
2022-11-18T15:45:29.103Z,14.37
2022-11-18T15:47:57.606Z,14.73
2022-11-18T15:50:27.016Z,14.43
2022-11-18T15:52:55.874Z,15.33
2022-11-18T15:55:23.896Z,27.80
2022-11-18T15:57:52.066Z,22.07
2022-11-18T16:00:20.603Z,21.40
2022-11-18T16:02:48.646Z,18.90
2022-11-18T16:05:16.822Z,21.77
2022-11-18T16:07:49.124Z,25.43
2022-11-18T16:10:36.967Z,16.67
2022-11-18T16:13:05.046Z,11.87
2022-11-18T16:15:44.680Z,12.63
2022-11-18T16:18:12.747Z,8.23
2022-11-18T16:20:40.792Z,11.63
2022-11-18T16:23:10.220Z,11.63
2022-11-18T16:25:43.755Z,12.80
2022-11-18T16:28:11.840Z,11.53
2022-11-18T16:30:57.577Z,7.07
2022-11-18T16:33:25.621Z,7.70
2022-11-18T16:35:54.397Z,6.70
2022-11-18T16:38:23.835Z,7.07
2022-11-18T16:40:56.530Z,7.60
2022-11-18T16:43:24.848Z,8.07
2022-11-18T16:45:53.798Z,6.53
2022-11-18T16:48:22.478Z,9.47
2022-11-18T16:51:01.080Z,6.50
2022-11-18T16:53:30.462Z,8.10
2022-11-18T16:56:04.301Z,7.90
2022-11-18T16:58:32.350Z,8.10
2022-11-18T17:01:18.507Z,7.30
2022-11-18T17:03:48.053Z,6.40
2022-11-18T17:06:16.139Z,9.10
2022-11-18T17:08:45.884Z,7.90
2022-11-18T17:11:14.026Z,13.97
2022-11-18T17:13:42.714Z,9.93
2022-11-18T17:16:12.741Z,7.10
2022-11-18T17:18:40.959Z,6.67
2022-11-18T17:21:11.028Z,8.10
2022-11-18T17:23:39.862Z,6.63
2022-11-18T17:26:09.747Z,6.47
2022-11-18T17:29:07.887Z,6.47
2022-11-18T17:31:35.903Z,8.00
2022-11-18T17:34:05.525Z,7.03
2022-11-18T17:36:33.655Z,6.13
2022-11-18T17:39:02.083Z,8.47
2022-11-18T17:41:49.119Z,5.10
2022-11-18T17:44:19.308Z,7.27
2022-11-18T17:46:47.527Z,5.37
2022-11-18T17:49:17.913Z,6.20
2022-11-18T17:51:47.017Z,4.60
2022-11-18T17:54:15.357Z,6.63
2022-11-18T17:56:44.986Z,6.87
2022-11-18T17:59:14.504Z,4.70
2022-11-18T18:01:42.646Z,6.90
2022-11-18T18:04:10.774Z,8.13
2022-11-18T18:06:38.846Z,9.37
2022-11-18T18:09:06.893Z,7.40
2022-11-18T18:11:34.914Z,6.40
2022-11-18T18:14:15.480Z,5.37
2022-11-18T18:16:45.918Z,5.20
2022-11-18T18:19:15.766Z,7.37
2022-11-18T18:21:43.732Z,6.70
2022-11-18T18:24:12.121Z,6.30
2022-11-18T18:26:40.206Z,6.10
2022-11-18T18:29:09.616Z,5.20
2022-11-18T18:31:38.471Z,5.57
2022-11-18T18:34:06.526Z,6.97
2022-11-18T18:36:34.677Z,7.37
2022-11-18T18:39:02.836Z,9.07
2022-11-18T18:41:32.364Z,8.43
2022-11-18T18:44:01.078Z,7.80
2022-11-18T18:46:31.369Z,5.30
2022-11-18T18:49:05.137Z,7.07
2022-11-18T18:51:36.880Z,5.30
2022-11-18T18:54:05.382Z,4.67
2022-11-18T18:56:34.093Z,6.67
2022-11-18T18:59:02.354Z,6.40
2022-11-18T19:01:33.459Z,6.27
2022-11-18T19:04:03.233Z,6.77
2022-11-18T19:09:21.684Z,5.40
2022-11-18T19:12:07.291Z,5.93
2022-11-18T19:14:35.648Z,4.67
2022-11-18T19:17:10.592Z,4.87
2022-11-18T19:19:57.489Z,4.43
2022-11-18T19:22:25.963Z,5.43
2022-11-18T19:24:54.602Z,6.00
2022-11-18T19:27:23.219Z,6.37
2022-11-18T19:29:51.232Z,6.90
2022-11-18T19:32:21.010Z,6.03
2022-11-18T19:34:49.088Z,5.50
2022-11-18T19:37:17.130Z,7.47
2022-11-18T19:39:45.134Z,8.33
2022-11-18T19:42:13.138Z,8.23
2022-11-18T19:44:41.163Z,7.57
2022-11-18T19:47:09.259Z,6.40
2022-11-18T19:49:38.675Z,6.03
2022-11-18T19:52:06.674Z,6.93
2022-11-18T19:54:34.728Z,5.23
2022-11-18T19:57:03.926Z,5.07
2022-11-18T19:59:32.075Z,6.07
2022-11-18T20:02:00.145Z,7.20
2022-11-18T20:04:28.251Z,6.37
2022-11-18T20:06:57.905Z,9.10
2022-11-18T20:09:26.430Z,5.93
2022-11-18T20:11:55.629Z,8.00
2022-11-18T20:14:23.739Z,5.93
2022-11-18T20:16:52.630Z,6.40
2022-11-18T20:19:21.053Z,6.03
2022-11-18T20:21:49.501Z,6.70
2022-11-18T20:24:20.149Z,6.30
2022-11-18T20:26:48.724Z,4.83
2022-11-18T20:29:17.364Z,6.63
2022-11-18T20:31:45.528Z,5.37
2022-11-18T20:34:14.949Z,5.93
2022-11-18T20:36:43.289Z,5.77
2022-11-18T20:39:14.559Z,7.17
2022-11-18T20:42:04.466Z,5.67
2022-11-18T20:44:32.525Z,5.07
2022-11-18T20:47:00.661Z,6.90
2022-11-18T20:49:28.725Z,6.13
2022-11-18T20:51:56.707Z,6.83
2022-11-18T20:54:24.669Z,8.10
2022-11-18T20:56:54.603Z,8.40
2022-11-18T20:59:22.751Z,28.07
2022-11-18T21:01:50.757Z,37.90
2022-11-18T21:04:18.838Z,42.87
2022-11-18T21:06:47.394Z,35.90
2022-11-18T21:09:16.870Z,62.07
2022-11-18T21:11:45.273Z,20.63
2022-11-18T21:14:24.509Z,55.07
2022-11-18T21:16:55.101Z,44.80
2022-11-18T21:19:23.652Z,47.67
2022-11-18T21:21:52.782Z,49.87
2022-11-18T21:24:22.947Z,38.50
2022-11-18T21:26:54.476Z,33.87
2022-11-18T21:29:27.259Z,26.63
2022-11-18T21:31:56.034Z,18.80
2022-11-18T21:34:24.379Z,18.63
2022-11-18T21:36:54.839Z,14.43
2022-11-18T21:39:24.100Z,5.93
2022-11-18T21:41:57.003Z,8.83
2022-11-18T21:44:28.180Z,8.03
2022-11-18T21:46:56.608Z,6.97
2022-11-18T21:49:24.584Z,7.03
2022-11-18T21:51:52.636Z,6.57
2022-11-18T21:54:20.633Z,6.17
2022-11-18T21:56:49.319Z,7.17
2022-11-18T21:59:17.625Z,8.23
2022-11-18T22:01:47.163Z,7.53
2022-11-18T22:04:35.755Z,7.00
2022-11-18T22:07:05.225Z,5.10
2022-11-18T22:09:36.782Z,6.33
2022-11-18T22:12:06.841Z,6.17
2022-11-18T22:14:34.950Z,7.40
2022-11-18T22:17:05.273Z,5.87
2022-11-18T22:19:33.270Z,5.37
2022-11-18T22:22:01.621Z,7.13
2022-11-18T22:24:29.878Z,5.70
2022-11-18T22:26:58.462Z,6.40
2022-11-18T22:29:26.478Z,6.93
2022-11-18T22:31:54.613Z,5.50
2022-11-18T22:34:23.979Z,12.33
2022-11-18T22:36:51.973Z,11.03
2022-11-18T22:39:20.102Z,13.43
2022-11-18T22:42:05.731Z,11.43
2022-11-18T22:44:33.791Z,11.37
2022-11-18T22:47:01.854Z,11.80
2022-11-18T22:49:31.280Z,14.20
2022-11-18T22:51:59.321Z,11.50
2022-11-18T22:54:42.690Z,12.90
2022-11-18T22:57:10.836Z,12.00
2022-11-18T22:59:38.804Z,12.93
2022-11-18T23:02:06.934Z,14.17
2022-11-18T23:04:36.288Z,18.93
2022-11-18T23:07:04.727Z,18.33
2022-11-18T23:09:32.895Z,17.93
2022-11-18T23:12:18.463Z,20.43
2022-11-18T23:14:46.649Z,17.53
2022-11-18T23:17:15.890Z,18.00
2022-11-18T23:19:46.930Z,15.83
2022-11-18T23:22:15.256Z,16.87
2022-11-18T23:24:43.242Z,18.10
2022-11-18T23:27:11.327Z,15.80
2022-11-18T23:29:39.434Z,17.77
2022-11-18T23:32:07.514Z,13.07
2022-11-18T23:34:35.560Z,16.07
2022-11-18T23:37:05.154Z,13.80
2022-11-18T23:39:33.173Z,11.80
2022-11-18T23:42:01.231Z,11.87
2022-11-18T23:44:49.167Z,10.23
2022-11-18T23:47:17.224Z,8.83
2022-11-18T23:49:45.363Z,8.37
2022-11-18T23:52:14.967Z,5.93
2022-11-18T23:54:43.062Z,11.33
2022-11-18T23:57:11.216Z,7.20
2022-11-18T23:59:39.263Z,8.90
